Time;durP1;ratioP1;P1;durP2;ratioP2;P2;SDS_P1;SDS_P2;PMS_P1;PMS_P2;Temp;Humidity;BMP_temperature;BMP_pressure;BME280_temperature;BME280_humidity;BME280_pressure;Samples;Min_cycle;Max_cycle;Signal;HPM_P1;HPM_P2
2023/01/22 00:00:35;;;;;;;7.13;3.80;;;;;;;;;;6315285;22;20039;-92
2023/01/22 00:03:03;;;;;;;7.28;3.85;;;;;;;;;;6231100;22;20046;-92
2023/01/22 00:05:31;;;;;;;12.45;4.05;;;;;;;;;;6287890;22;20020;-92
2023/01/22 00:08:03;;;;;;;7.28;3.88;;;;;;;;;;6287428;22;20011;-94
2023/01/22 00:10:35;;;;;;;6.82;3.25;;;;;;;;;;6258235;22;20098;-93
2023/01/22 00:13:03;;;;;;;5.97;3.47;;;;;;;;;;6233647;22;20039;-92
2023/01/22 00:15:31;;;;;;;7.18;3.65;;;;;;;;;;6274410;22;20023;-93
2023/01/22 00:17:59;;;;;;;8.00;3.72;;;;;;;;;;6291047;22;20023;-92
2023/01/22 00:20:53;;;;;;;9.00;4.18;;;;;;;;;;6290307;22;20023;-93
2023/01/22 00:23:22;;;;;;;5.53;3.30;;;;;;;;;;6265933;22;20023;-93
2023/01/22 00:26:02;;;;;;;7.47;4.00;;;;;;;;;;6295836;22;20030;-93
2023/01/22 00:28:31;;;;;;;7.00;3.63;;;;;;;;;;6234908;22;20031;-93
2023/01/22 00:31:00;;;;;;;5.28;2.78;;;;;;;;;;6297333;22;20068;-93
2023/01/22 00:33:29;;;;;;;5.80;3.05;;;;;;;;;;6294202;22;20364;-93
2023/01/22 00:36:21;;;;;;;8.35;3.80;;;;;;;;;;6295653;22;20067;-93
2023/01/22 00:38:49;;;;;;;8.15;4.03;;;;;;;;;;6262001;22;20050;-92
2023/01/22 00:41:23;;;;;;;7.75;3.42;;;;;;;;;;6297370;22;20014;-93
2023/01/22 00:43:51;;;;;;;10.95;4.20;;;;;;;;;;6269577;22;20096;-94
2023/01/22 00:46:25;;;;;;;5.88;3.67;;;;;;;;;;6238088;22;20382;-93
2023/01/22 00:48:53;;;;;;;7.13;3.78;;;;;;;;;;6299418;22;20082;-91
2023/01/22 00:51:23;;;;;;;6.75;3.63;;;;;;;;;;6273579;22;20393;-92
2023/01/22 00:53:51;;;;;;;4.88;3.10;;;;;;;;;;6268286;22;20026;-91
2023/01/22 00:56:43;;;;;;;7.63;3.83;;;;;;;;;;6263974;22;20023;-90
2023/01/22 00:59:35;;;;;;;7.03;3.53;;;;;;;;;;6300997;22;20057;-91
2023/01/22 01:02:03;;;;;;;6.13;3.63;;;;;;;;;;6267523;22;20402;-92
2023/01/22 01:04:31;;;;;;;8.38;3.42;;;;;;;;;;6258952;22;20027;-92
2023/01/22 01:06:59;;;;;;;7.10;3.10;;;;;;;;;;6321472;22;20019;-93
2023/01/22 01:09:27;;;;;;;6.55;3.47;;;;;;;;;;6233556;22;20497;-92
2023/01/22 01:11:55;;;;;;;7.85;3.63;;;;;;;;;;6257836;22;20023;-92
2023/01/22 01:14:27;;;;;;;5.93;3.40;;;;;;;;;;6234813;22;20023;-92
2023/01/22 01:16:57;;;;;;;7.18;3.55;;;;;;;;;;6237634;22;20027;-92
2023/01/22 01:19:25;;;;;;;8.32;3.53;;;;;;;;;;6284880;22;20015;-92
2023/01/22 01:21:53;;;;;;;6.93;3.65;;;;;;;;;;6268459;22;20018;-92
2023/01/22 01:24:21;;;;;;;7.60;3.72;;;;;;;;;;6290862;22;20047;-91
2023/01/22 01:26:49;;;;;;;6.30;3.25;;;;;;;;;;6296465;22;20089;-92
2023/01/22 01:29:17;;;;;;;5.30;3.47;;;;;;;;;;6269559;22;20015;-92
2023/01/22 01:31:45;;;;;;;6.13;3.63;;;;;;;;;;6289137;22;20019;-92
2023/01/22 01:37:07;;;;;;;5.70;3.30;;;;;;;;;;6267479;22;20084;-92
2023/01/22 01:39:35;;;;;;;7.78;4.15;;;;;;;;;;6244615;22;20011;-92
2023/01/22 01:42:03;;;;;;;9.55;3.80;;;;;;;;;;6239749;22;20460;-91
2023/01/22 01:45:31;;;;;;;6.30;2.75;;;;;;;;;;6276109;22;20407;-92
2023/01/22 01:48:13;;;;;;;6.38;3.38;;;;;;;;;;6274860;22;20011;-91
2023/01/22 01:50:54;;;;;;;9.27;3.88;;;;;;;;;;6300739;22;20124;-92
2023/01/22 01:53:49;;;;;;;6.32;3.40;;;;;;;;;;6301626;22;20061;-91
2023/01/22 01:56:27;;;;;;;5.85;2.97;;;;;;;;;;6240775;22;20019;-92
2023/01/22 01:59:01;;;;;;;8.77;3.70;;;;;;;;;;6300014;22;20070;-92
2023/01/22 02:01:33;;;;;;;7.65;2.97;;;;;;;;;;6275233;22;20017;-92
2023/01/22 02:04:01;;;;;;;5.28;3.35;;;;;;;;;;6240680;22;20019;-92
2023/01/22 02:06:29;;;;;;;7.10;3.40;;;;;;;;;;6264756;22;20116;-92
2023/01/22 02:09:21;;;;;;;5.57;3.20;;;;;;;;;;6268912;22;20024;-93
2023/01/22 02:11:50;;;;;;;6.00;3.63;;;;;;;;;;6264516;22;20340;-92
2023/01/22 02:14:26;;;;;;;6.15;3.72;;;;;;;;;;6264264;22;20019;-92
2023/01/22 02:17:00;;;;;;;6.28;2.90;;;;;;;;;;6264706;22;20030;-91
2023/01/22 02:19:51;;;;;;;7.38;3.40;;;;;;;;;;6279597;22;20030;-91
2023/01/22 02:22:25;;;;;;;9.57;4.13;;;;;;;;;;6239279;22;20023;-92
2023/01/22 02:25:00;;;;;;;7.28;3.33;;;;;;;;;;6263947;22;20021;-92
2023/01/22 02:27:27;;;;;;;5.80;3.08;;;;;;;;;;6238264;22;20027;-92
2023/01/22 02:29:55;;;;;;;5.95;3.42;;;;;;;;;;6239511;22;20019;-92
2023/01/22 02:32:23;;;;;;;7.20;3.10;;;;;;;;;;6275327;22;20011;-92
2023/01/22 02:34:53;;;;;;;8.20;3.33;;;;;;;;;;6290499;22;20053;-92
2023/01/22 02:37:47;;;;;;;8.23;3.22;;;;;;;;;;6308326;22;20011;-92
2023/01/22 02:40:15;;;;;;;6.32;3.33;;;;;;;;;;6242847;22;20435;-92
2023/01/22 02:43:09;;;;;;;6.47;3.28;;;;;;;;;;6272142;22;20100;-92
2023/01/22 02:46:01;;;;;;;8.93;3.55;;;;;;;;;;6308070;22;20019;-91
2023/01/22 02:48:35;;;;;;;5.68;3.22;;;;;;;;;;6268581;22;20022;-91
2023/01/22 02:51:03;;;;;;;5.93;3.10;;;;;;;;;;6266724;22;20037;-92
2023/01/22 02:53:31;;;;;;;6.07;3.22;;;;;;;;;;6277195;22;20012;-92
2023/01/22 02:55:59;;;;;;;6.10;3.33;;;;;;;;;;6277137;22;20011;-92
2023/01/22 02:58:27;;;;;;;5.13;2.97;;;;;;;;;;6277181;22;20018;-91
2023/01/22 03:01:22;;;;;;;6.15;3.28;;;;;;;;;;6306211;22;20022;-92
2023/01/22 03:04:00;;;;;;;7.32;3.17;;;;;;;;;;6277657;22;20023;-91
2023/01/22 03:06:33;;;;;;;6.45;3.38;;;;;;;;;;6302813;22;20015;-91
2023/01/22 03:09:01;;;;;;;7.20;3.13;;;;;;;;;;6240768;22;20022;-92
2023/01/22 03:11:39;;;;;;;6.13;3.33;;;;;;;;;;6276138;22;20023;-92
2023/01/22 03:22:37;;;;;;;5.72;3.08;;;;;;;;;;6302780;22;20018;-92
2023/01/22 03:25:05;;;;;;;6.63;3.05;;;;;;;;;;6265551;22;20044;-92
2023/01/22 03:27:33;;;;;;;6.53;3.20;;;;;;;;;;6239822;22;20080;-92
2023/01/22 03:30:25;;;;;;;5.35;3.28;;;;;;;;;;6265917;22;20037;-92
2023/01/22 03:32:53;;;;;;;8.25;3.60;;;;;;;;;;6241649;22;20050;-92
2023/01/22 03:35:21;;;;;;;6.57;3.17;;;;;;;;;;6240829;22;20026;-92
2023/01/22 03:38:11;;;;;;;8.52;3.47;;;;;;;;;;6281791;22;20067;-91
2023/01/22 03:41:07;;;;;;;5.85;3.20;;;;;;;;;;6272051;22;20332;-92
2023/01/22 03:43:35;;;;;;;6.65;3.35;;;;;;;;;;6327201;22;20045;-92
2023/01/22 03:46:11;;;;;;;6.10;3.20;;;;;;;;;;6300708;22;20071;-91
2023/01/22 03:48:43;;;;;;;6.97;3.28;;;;;;;;;;6289159;22;20015;-92
2023/01/22 03:51:37;;;;;;;6.82;3.28;;;;;;;;;;6306472;22;20098;-91
2023/01/22 03:54:05;;;;;;;5.75;3.30;;;;;;;;;;6299955;22;20011;-91
2023/01/22 03:56:33;;;;;;;6.30;3.00;;;;;;;;;;6264729;22;20023;-91
2023/01/22 03:59:08;;;;;;;6.25;3.03;;;;;;;;;;6264717;22;20022;-91
2023/01/22 04:01:37;;;;;;;5.15;2.83;;;;;;;;;;6264959;22;20098;-92
2023/01/22 04:04:05;;;;;;;7.20;3.13;;;;;;;;;;6276619;22;20015;-91
2023/01/22 04:06:33;;;;;;;5.65;3.15;;;;;;;;;;6239851;22;20026;-91
2023/01/22 04:09:01;;;;;;;6.45;3.15;;;;;;;;;;6300195;22;20011;-91
2023/01/22 04:11:37;;;;;;;6.45;3.20;;;;;;;;;;6276982;22;20023;-92
2023/01/22 04:14:07;;;;;;;7.38;3.40;;;;;;;;;;6240006;22;20023;-92
2023/01/22 04:16:50;;;;;;;5.45;2.90;;;;;;;;;;6268165;22;20046;-92
2023/01/22 04:19:47;;;;;;;11.55;3.63;;;;;;;;;;6172883;23;20018;-92
2023/01/22 04:22:33;;;;;;;5.93;2.80;;;;;;;;;;6172150;23;20021;-92
2023/01/22 04:25:25;;;;;;;8.90;3.28;;;;;;;;;;6148119;23;20040;-92
2023/01/22 04:27:53;;;;;;;5.85;3.22;;;;;;;;;;6138604;23;20022;-92
2023/01/22 04:30:21;;;;;;;7.15;3.17;;;;;;;;;;6112819;23;20524;-92
2023/01/22 04:33:03;;;;;;;7.40;3.25;;;;;;;;;;6137469;23;20025;-92
2023/01/22 04:35:43;;;;;;;7.03;3.42;;;;;;;;;;6091496;23;20032;-92
2023/01/22 04:38:12;;;;;;;10.80;3.20;;;;;;;;;;6136932;23;20017;-92
2023/01/22 04:40:41;;;;;;;9.20;3.53;;;;;;;;;;6146945;23;20045;-92
2023/01/22 04:43:09;;;;;;;7.30;3.05;;;;;;;;;;6147488;23;20021;-92
2023/01/22 04:45:37;;;;;;;6.63;3.15;;;;;;;;;;6114380;23;20088;-92
2023/01/22 04:48:11;;;;;;;8.20;2.83;;;;;;;;;;6172611;23;20498;-92
2023/01/22 04:53:33;;;;;;;9.30;3.85;;;;;;;;;;6172831;23;20029;-92
2023/01/22 04:56:06;;;;;;;6.10;3.08;;;;;;;;;;6226656;22;20452;-92
2023/01/22 04:58:35;;;;;;;5.57;3.22;;;;;;;;;;6274484;22;20061;-91
2023/01/22 05:01:03;;;;;;;11.27;3.78;;;;;;;;;;6264489;22;20463;-92
2023/01/22 05:03:55;;;;;;;6.95;3.50;;;;;;;;;;6261795;22;20007;-92
2023/01/22 05:06:35;;;;;;;9.05;3.28;;;;;;;;;;6264195;22;20062;-92
2023/01/22 05:09:03;;;;;;;6.72;2.97;;;;;;;;;;6263537;22;20023;-92
2023/01/22 05:11:57;;;;;;;6.03;3.05;;;;;;;;;;6279760;22;20019;-91
2023/01/22 05:14:25;;;;;;;6.00;2.53;;;;;;;;;;6264150;22;20023;-92
2023/01/22 05:17:19;;;;;;;8.43;3.67;;;;;;;;;;6327062;22;20015;-92
2023/01/22 05:19:53;;;;;;;5.47;2.88;;;;;;;;;;6265212;22;20447;-92
2023/01/22 05:22:21;;;;;;;6.82;3.13;;;;;;;;;;6237550;22;20019;-92
2023/01/22 05:24:49;;;;;;;7.65;3.33;;;;;;;;;;6263665;22;20026;-91
2023/01/22 05:27:46;;;;;;;6.75;3.20;;;;;;;;;;6269098;22;20019;-92
2023/01/22 05:30:46;;;;;;;7.63;3.70;;;;;;;;;;6240646;22;20015;-92
2023/01/22 05:33:41;;;;;;;7.10;3.17;;;;;;;;;;6327450;22;20041;-91
2023/01/22 05:36:13;;;;;;;6.95;3.42;;;;;;;;;;6239751;22;20023;-92
2023/01/22 05:38:49;;;;;;;7.57;3.08;;;;;;;;;;6241175;22;20019;-91
2023/01/22 05:41:19;;;;;;;5.25;2.90;;;;;;;;;;6275560;22;20022;-93
2023/01/22 05:43:47;;;;;;;8.30;3.20;;;;;;;;;;6274748;22;20012;-92
2023/01/22 05:46:41;;;;;;;8.80;3.30;;;;;;;;;;6306226;22;20491;-91
2023/01/22 05:49:35;;;;;;;8.82;3.40;;;;;;;;;;6167171;23;20020;-92
2023/01/22 05:52:05;;;;;;;5.57;3.05;;;;;;;;;;6201772;23;20021;-93
2023/01/22 05:54:58;;;;;;;7.75;3.40;;;;;;;;;;6142186;23;20017;-92
2023/01/22 05:57:53;;;;;;;6.90;3.20;;;;;;;;;;6172664;23;20111;-92
2023/01/22 06:00:47;;;;;;;6.60;2.92;;;;;;;;;;6176651;23;20028;-92
2023/01/22 06:03:22;;;;;;;7.07;3.45;;;;;;;;;;6190259;23;20104;-93
2023/01/22 06:05:57;;;;;;;6.25;3.33;;;;;;;;;;6177671;23;20031;-92
2023/01/22 06:09:15;;;;;;;8.32;2.85;;;;;;;;;;6177631;23;20020;-92
2023/01/22 06:11:47;;;;;;;6.13;3.10;;;;;;;;;;6179517;23;20128;-92
2023/01/22 06:14:15;;;;;;;7.65;3.08;;;;;;;;;;6153524;23;20047;-92
2023/01/22 06:17:09;;;;;;;8.00;3.47;;;;;;;;;;6193193;23;20031;-92
2023/01/22 06:19:55;;;;;;;7.53;3.33;;;;;;;;;;6203078;23;20024;-92
2023/01/22 06:22:23;;;;;;;8.25;3.22;;;;;;;;;;6178349;23;20079;-92
2023/01/22 06:24:55;;;;;;;7.97;2.80;;;;;;;;;;6203294;23;20519;-91
2023/01/22 06:27:27;;;;;;;5.13;2.72;;;;;;;;;;6289512;22;20023;-92
2023/01/22 06:30:01;;;;;;;7.97;3.38;;;;;;;;;;6241251;22;20091;-92
2023/01/22 06:32:53;;;;;;;6.47;2.75;;;;;;;;;;6270464;22;20538;-91
2023/01/22 06:35:21;;;;;;;7.88;3.53;;;;;;;;;;6301357;22;20019;-92
2023/01/22 06:37:56;;;;;;;6.40;3.10;;;;;;;;;;6265504;22;20015;-92
2023/01/22 06:40:25;;;;;;;6.13;3.15;;;;;;;;;;6240903;22;20045;-92
2023/01/22 06:42:53;;;;;;;6.07;3.13;;;;;;;;;;6241539;22;20097;-93
2023/01/22 06:45:25;;;;;;;7.75;2.65;;;;;;;;;;6277348;22;20019;-92
2023/01/22 06:47:57;;;;;;;6.57;3.40;;;;;;;;;;6241898;22;20019;-92
2023/01/22 06:50:25;;;;;;;9.63;3.30;;;;;;;;;;6277915;22;20034;-92
2023/01/22 06:52:53;;;;;;;7.50;3.35;;;;;;;;;;6241197;22;20054;-91
2023/01/22 06:55:21;;;;;;;6.43;3.15;;;;;;;;;;6266220;22;20023;-92
2023/01/22 06:57:56;;;;;;;8.18;3.63;;;;;;;;;;6302892;22;20057;-92
2023/01/22 07:00:25;;;;;;;9.82;3.75;;;;;;;;;;6266451;22;20024;-92
2023/01/22 07:02:53;;;;;;;7.75;3.47;;;;;;;;;;6265966;22;20112;-92
2023/01/22 07:05:21;;;;;;;5.32;3.22;;;;;;;;;;6276349;22;20039;-92
2023/01/22 07:07:53;;;;;;;15.75;3.75;;;;;;;;;;6264892;22;20022;-92
2023/01/22 07:10:21;;;;;;;6.75;3.15;;;;;;;;;;6241223;22;20016;-92
2023/01/22 07:13:14;;;;;;;7.30;3.25;;;;;;;;;;6265482;22;20019;-92
2023/01/22 07:15:43;;;;;;;9.75;4.07;;;;;;;;;;6265914;22;20021;-92
2023/01/22 07:18:18;;;;;;;7.47;3.20;;;;;;;;;;6278197;22;20076;-92
2023/01/22 07:20:49;;;;;;;8.70;4.25;;;;;;;;;;6301516;22;20011;-92
2023/01/22 07:23:17;;;;;;;6.75;3.22;;;;;;;;;;6277395;22;20019;-92
2023/01/22 07:25:45;;;;;;;6.50;3.30;;;;;;;;;;6265647;22;20046;-92
2023/01/22 07:28:19;;;;;;;11.02;3.30;;;;;;;;;;6242521;22;20447;-92
2023/01/22 07:31:15;;;;;;;5.72;3.20;;;;;;;;;;6247543;22;20025;-92
2023/01/22 07:33:43;;;;;;;9.25;3.50;;;;;;;;;;6241704;22;20358;-92
2023/01/22 07:36:35;;;;;;;13.55;3.20;;;;;;;;;;6266823;22;20007;-92
2023/01/22 07:39:07;;;;;;;11.60;3.50;;;;;;;;;;6292140;22;20012;-92
2023/01/22 07:42:00;;;;;;;8.55;3.20;;;;;;;;;;6271767;22;20022;-92
2023/01/22 07:44:53;;;;;;;7.78;3.40;;;;;;;;;;6308704;22;20019;-92
2023/01/22 07:47:26;;;;;;;6.72;3.22;;;;;;;;;;6265643;22;20030;-92
2023/01/22 07:49:53;;;;;;;6.03;2.78;;;;;;;;;;6299648;22;20016;-93
2023/01/22 07:52:21;;;;;;;7.15;2.90;;;;;;;;;;6266517;22;20019;-93
2023/01/22 07:57:41;;;;;;;5.78;3.03;;;;;;;;;;6302817;22;20062;-93
2023/01/22 08:00:10;;;;;;;7.13;2.80;;;;;;;;;;6241576;22;20016;-93
2023/01/22 08:02:41;;;;;;;12.63;3.35;;;;;;;;;;6300864;22;20025;-92
2023/01/22 08:05:11;;;;;;;6.70;3.38;;;;;;;;;;6267112;22;20026;-93
2023/01/22 08:07:39;;;;;;;9.50;3.47;;;;;;;;;;6280073;22;20019;-93
2023/01/22 08:10:08;;;;;;;8.48;2.95;;;;;;;;;;6245477;22;20016;-93
2023/01/22 08:12:49;;;;;;;6.32;2.75;;;;;;;;;;6271617;22;20026;-91
2023/01/22 08:15:18;;;;;;;7.25;3.33;;;;;;;;;;6277696;22;20019;-91
2023/01/22 08:17:51;;;;;;;6.20;2.80;;;;;;;;;;6245434;22;20023;-91
2023/01/22 08:20:19;;;;;;;6.32;2.58;;;;;;;;;;6267219;22;20098;-92
2023/01/22 08:22:59;;;;;;;8.20;3.30;;;;;;;;;;6261978;22;20343;-93
2023/01/22 08:25:44;;;;;;;10.38;3.08;;;;;;;;;;6272311;22;20019;-92
2023/01/22 08:31:16;;;;;;;8.43;3.38;;;;;;;;;;6304814;22;20038;-92
2023/01/22 08:34:21;;;;;;;8.35;3.30;;;;;;;;;;6304313;22;20019;-91
2023/01/22 08:36:59;;;;;;;11.35;2.88;;;;;;;;;;6297627;22;20011;-92
2023/01/22 08:39:27;;;;;;;8.40;3.30;;;;;;;;;;6302098;22;20796;-92
2023/01/22 08:41:56;;;;;;;10.07;3.60;;;;;;;;;;6272636;22;20043;-93
2023/01/22 08:44:49;;;;;;;9.10;3.65;;;;;;;;;;6245891;22;20007;-92
2023/01/22 08:47:17;;;;;;;9.05;3.58;;;;;;;;;;6292346;22;20018;-91
2023/01/22 08:49:49;;;;;;;5.15;2.72;;;;;;;;;;6321369;22;20466;-91
2023/01/22 08:52:22;;;;;;;8.25;3.13;;;;;;;;;;6236800;22;20123;-92
2023/01/22 08:54:51;;;;;;;9.27;3.72;;;;;;;;;;6297716;22;20015;-90
2023/01/22 08:57:19;;;;;;;11.48;3.60;;;;;;;;;;6273975;22;20026;-91
2023/01/22 08:59:58;;;;;;;7.72;2.85;;;;;;;;;;6277462;22;20007;-92
2023/01/22 09:02:31;;;;;;;6.40;3.13;;;;;;;;;;6243973;22;20015;-92
2023/01/22 09:05:02;;;;;;;10.48;3.17;;;;;;;;;;6293218;22;20050;-92
2023/01/22 09:07:33;;;;;;;8.35;3.33;;;;;;;;;;6234866;22;20023;-91
2023/01/22 09:10:01;;;;;;;9.23;3.65;;;;;;;;;;6298171;22;20007;-91
2023/01/22 09:12:29;;;;;;;7.32;3.10;;;;;;;;;;6302207;22;20692;-92
2023/01/22 09:15:21;;;;;;;9.10;3.75;;;;;;;;;;6332962;22;20062;-92
2023/01/22 09:17:49;;;;;;;6.95;2.90;;;;;;;;;;6303492;22;20021;-93
2023/01/22 09:20:41;;;;;;;8.00;3.42;;;;;;;;;;6274742;22;20010;-93
2023/01/22 09:23:09;;;;;;;10.02;2.88;;;;;;;;;;6271502;22;20068;-92
2023/01/22 09:25:37;;;;;;;11.18;3.00;;;;;;;;;;6269492;22;20019;-91
2023/01/22 09:28:07;;;;;;;7.97;3.08;;;;;;;;;;6318384;22;20023;-92
2023/01/22 09:30:41;;;;;;;7.50;2.70;;;;;;;;;;6290553;22;20018;-90
2023/01/22 09:33:09;;;;;;;7.70;3.05;;;;;;;;;;6288574;22;20041;-91
2023/01/22 09:35:37;;;;;;;9.48;3.00;;;;;;;;;;6289803;22;20023;-90
2023/01/22 09:38:05;;;;;;;8.27;3.33;;;;;;;;;;6264110;22;20023;-92
2023/01/22 09:40:51;;;;;;;5.95;2.78;;;;;;;;;;6291940;22;20098;-92
2023/01/22 09:43:54;;;;;;;5.00;2.35;;;;;;;;;;6318588;22;20023;-91
2023/01/22 09:46:39;;;;;;;5.88;2.83;;;;;;;;;;6293603;22;20041;-92
2023/01/22 09:49:15;;;;;;;7.30;2.70;;;;;;;;;;6294618;22;20022;-92
2023/01/22 09:51:58;;;;;;;6.97;3.13;;;;;;;;;;6295479;22;20035;-92
2023/01/22 09:54:52;;;;;;;5.32;2.47;;;;;;;;;;6295510;22;20015;-91
2023/01/22 09:57:21;;;;;;;5.35;2.17;;;;;;;;;;6259271;22;20041;-91
2023/01/22 09:59:59;;;;;;;6.95;2.42;;;;;;;;;;6272731;22;20019;-91
2023/01/22 10:02:39;;;;;;;5.40;2.78;;;;;;;;;;6294916;22;20023;-91
2023/01/22 10:05:22;;;;;;;12.75;3.08;;;;;;;;;;6295452;22;20031;-92
2023/01/22 10:08:14;;;;;;;12.18;2.75;;;;;;;;;;6294116;22;20045;-91
2023/01/22 10:10:41;;;;;;;12.02;3.13;;;;;;;;;;6323200;22;20035;-91
2023/01/22 10:13:20;;;;;;;6.93;3.13;;;;;;;;;;6293885;22;20457;-91
2023/01/22 10:15:54;;;;;;;8.13;2.92;;;;;;;;;;6296109;22;20022;-91
2023/01/22 10:18:33;;;;;;;7.07;2.60;;;;;;;;;;6294730;22;20015;-93
2023/01/22 10:21:04;;;;;;;12.13;2.88;;;;;;;;;;6261580;22;20019;-94
2023/01/22 10:23:33;;;;;;;6.28;2.50;;;;;;;;;;6298983;22;20015;-93
2023/01/22 10:26:38;;;;;;;5.80;2.25;;;;;;;;;;6243742;22;20015;-93
2023/01/22 10:29:29;;;;;;;7.78;2.67;;;;;;;;;;6249281;22;20038;-94
2023/01/22 10:32:20;;;;;;;7.53;2.55;;;;;;;;;;6274087;22;20157;-92
2023/01/22 10:35:18;;;;;;;5.97;2.13;;;;;;;;;;6322323;22;20019;-92
2023/01/22 10:37:47;;;;;;;9.00;2.80;;;;;;;;;;6137693;23;20025;-93
2023/01/22 10:40:37;;;;;;;9.23;2.70;;;;;;;;;;6158786;23;20121;-92
2023/01/22 10:43:13;;;;;;;7.90;2.58;;;;;;;;;;6121300;23;20029;-92
2023/01/22 10:45:58;;;;;;;5.40;2.42;;;;;;;;;;6140282;23;20045;-93
2023/01/22 10:48:32;;;;;;;6.60;2.65;;;;;;;;;;6123475;23;20048;-92
2023/01/22 10:51:10;;;;;;;9.95;3.45;;;;;;;;;;6127075;23;20037;-92
2023/01/22 10:53:48;;;;;;;7.68;2.40;;;;;;;;;;6116399;23;20084;-93
2023/01/22 10:56:39;;;;;;;5.80;2.50;;;;;;;;;;6146899;23;20041;-93
2023/01/22 10:59:27;;;;;;;4.97;2.63;;;;;;;;;;6131549;23;20017;-92
2023/01/22 11:02:01;;;;;;;7.88;2.50;;;;;;;;;;6138720;23;20117;-94
2023/01/22 11:04:32;;;;;;;8.48;2.22;;;;;;;;;;6138983;23;20031;-92
2023/01/22 11:07:20;;;;;;;6.30;2.90;;;;;;;;;;6162068;23;20025;-93
2023/01/22 11:10:23;;;;;;;8.05;2.53;;;;;;;;;;6137605;23;20104;-93
2023/01/22 11:13:07;;;;;;;7.30;2.88;;;;;;;;;;6101664;23;20033;-93
2023/01/22 11:16:10;;;;;;;7.03;2.22;;;;;;;;;;6163181;23;20378;-92
2023/01/22 11:18:42;;;;;;;8.52;3.63;;;;;;;;;;6135728;23;20405;-91
2023/01/22 11:21:19;;;;;;;5.88;2.60;;;;;;;;;;6101771;23;20032;-91
2023/01/22 11:24:01;;;;;;;10.63;3.70;;;;;;;;;;6149495;23;20100;-90
2023/01/22 11:26:55;;;;;;;8.55;2.70;;;;;;;;;;6152643;23;20080;-92
2023/01/22 11:29:47;;;;;;;17.27;5.25;;;;;;;;;;6172999;23;20028;-92
2023/01/22 11:32:46;;;;;;;15.93;3.97;;;;;;;;;;6114298;23;20049;-90
2023/01/22 11:35:46;;;;;;;9.57;2.97;;;;;;;;;;6162252;23;20022;-91
2023/01/22 11:38:41;;;;;;;9.70;2.67;;;;;;;;;;6103841;23;20125;-91
2023/01/22 11:41:35;;;;;;;9.93;3.13;;;;;;;;;;6100368;23;20028;-91
2023/01/22 11:45:16;;;;;;;6.03;3.00;;;;;;;;;;6108015;23;20021;-91
2023/01/22 11:48:40;;;;;;;7.07;2.50;;;;;;;;;;6134174;23;20041;-91
2023/01/22 11:51:27;;;;;;;8.30;3.83;;;;;;;;;;6300458;22;20023;-91
2023/01/22 11:54:33;;;;;;;9.82;2.97;;;;;;;;;;6286999;22;20038;-92
2023/01/22 11:57:22;;;;;;;13.90;3.65;;;;;;;;;;6286387;22;20505;-92
2023/01/22 11:59:55;;;;;;;7.82;3.92;;;;;;;;;;6314405;22;20015;-91
2023/01/22 12:02:41;;;;;;;8.25;2.83;;;;;;;;;;6261081;22;20015;-91
2023/01/22 12:05:42;;;;;;;6.03;2.53;;;;;;;;;;6288261;22;20014;-93
2023/01/22 12:08:25;;;;;;;5.97;2.60;;;;;;;;;;6261774;22;20039;-92
2023/01/22 12:11:21;;;;;;;10.48;3.30;;;;;;;;;;6292893;22;20007;-90
2023/01/22 12:14:29;;;;;;;7.70;1.95;;;;;;;;;;6265389;22;20011;-93
2023/01/22 12:17:31;;;;;;;7.72;2.38;;;;;;;;;;6299071;22;20098;-93
2023/01/22 12:23:16;;;;;;;8.38;3.90;;;;;;;;;;6290008;22;20348;-95
2023/01/22 12:26:24;;;;;;;8.57;3.00;;;;;;;;;;6232124;22;20016;-94
2023/01/22 12:29:19;;;;;;;10.50;3.95;;;;;;;;;;6289247;22;20011;-94
2023/01/22 12:31:57;;;;;;;11.63;5.00;;;;;;;;;;6227602;22;20026;-93
2023/01/22 12:34:31;;;;;;;10.18;3.83;;;;;;;;;;6263524;22;20015;-95
2023/01/22 12:39:00;;;;;;;7.93;3.28;;;;;;;;;;6214433;22;20029;-96
2023/01/22 12:41:50;;;;;;;7.63;2.40;;;;;;;;;;6148590;23;20017;-96
2023/01/22 12:44:40;;;;;;;7.93;2.25;;;;;;;;;;6159076;23;20021;-95
2023/01/22 12:47:40;;;;;;;6.78;2.38;;;;;;;;;;6146850;23;20357;-95
2023/01/22 12:50:33;;;;;;;8.35;2.70;;;;;;;;;;6138784;23;20070;-96
2023/01/22 12:53:28;;;;;;;11.80;3.55;;;;;;;;;;6133746;23;20366;-95
2023/01/22 12:56:03;;;;;;;13.02;2.70;;;;;;;;;;6133091;23;20027;-95
2023/01/22 12:58:40;;;;;;;9.48;2.63;;;;;;;;;;6167130;23;20017;-96
2023/01/22 13:01:13;;;;;;;5.70;2.10;;;;;;;;;;6192193;23;20021;-95
2023/01/22 13:03:41;;;;;;;6.22;2.20;;;;;;;;;;6143443;23;20021;-96
2023/01/22 13:10:58;;;;;;;7.82;1.45;;;;;;;;;;6023115;23;20075;-94
2023/01/22 13:14:18;;;;;;;7.47;1.58;;;;;;;;;;5926913;24;20044;-96
2023/01/22 13:17:35;;;;;;;6.82;2.20;;;;;;;;;;5949673;24;20020;-93
2023/01/22 13:20:03;;;;;;;11.57;2.30;;;;;;;;;;5953887;24;20093;-92
2023/01/22 13:22:32;;;;;;;10.63;1.77;;;;;;;;;;5961287;24;20118;-92
2023/01/22 13:24:59;;;;;;;5.20;2.08;;;;;;;;;;5933011;24;20530;-94
2023/01/22 13:27:33;;;;;;;9.48;3.10;;;;;;;;;;5926289;24;20430;-94
2023/01/22 13:30:27;;;;;;;7.75;1.70;;;;;;;;;;5939222;24;20073;-96
2023/01/22 13:33:14;;;;;;;9.75;2.35;;;;;;;;;;5926189;24;20109;-95
2023/01/22 13:35:47;;;;;;;10.45;2.13;;;;;;;;;;5951853;24;20025;-95
2023/01/22 13:39:12;;;;;;;9.93;2.60;;;;;;;;;;5954015;23;20025;-94
2023/01/22 13:45:52;;;;;;;;;;;;;;;;;;6049844;23;20014;-94
2023/01/22 13:48:21;;;;;;;5.00;1.80;;;;;;;;;;6102956;23;19956;-93
2023/01/22 13:50:58;;;;;;;9.52;2.25;;;;;;;;;;6100411;23;20098;-93
2023/01/22 13:53:35;;;;;;;8.15;2.00;;;;;;;;;;6121722;23;20022;-92
2023/01/22 13:56:04;;;;;;;8.43;1.80;;;;;;;;;;6107715;23;20029;-91
2023/01/22 13:58:42;;;;;;;4.90;1.52;;;;;;;;;;6141109;23;20025;-91
2023/01/22 14:01:30;;;;;;;6.75;1.90;;;;;;;;;;6086302;23;20026;-90
2023/01/22 14:04:01;;;;;;;6.28;1.63;;;;;;;;;;6130738;23;20485;-92
2023/01/22 14:06:29;;;;;;;7.25;2.50;;;;;;;;;;6134595;23;20033;-92
2023/01/22 14:08:57;;;;;;;4.55;1.98;;;;;;;;;;6128587;23;20030;-93
2023/01/22 14:11:39;;;;;;;8.10;1.60;;;;;;;;;;6096731;23;20026;-93
2023/01/22 14:14:17;;;;;;;6.55;1.70;;;;;;;;;;6096524;23;20093;-93
2023/01/22 14:16:45;;;;;;;6.07;1.75;;;;;;;;;;6118530;23;20098;-92
2023/01/22 14:19:13;;;;;;;6.72;2.28;;;;;;;;;;6256253;22;20020;-91
2023/01/22 14:22:10;;;;;;;8.10;2.17;;;;;;;;;;6321067;22;20320;-91
2023/01/22 14:24:39;;;;;;;4.07;1.80;;;;;;;;;;6262906;22;20023;-92
2023/01/22 14:27:07;;;;;;;8.43;2.65;;;;;;;;;;6294689;22;20027;-92
2023/01/22 14:29:35;;;;;;;3.65;1.58;;;;;;;;;;6270052;22;20011;-92
2023/01/22 14:32:03;;;;;;;7.03;1.83;;;;;;;;;;6256238;22;20352;-93
2023/01/22 14:34:36;;;;;;;7.80;1.98;;;;;;;;;;6240297;22;20082;-93
2023/01/22 14:37:14;;;;;;;4.55;2.25;;;;;;;;;;6251219;22;20019;-92
2023/01/22 14:39:49;;;;;;;6.95;2.20;;;;;;;;;;6251382;22;20091;-92
2023/01/22 14:42:19;;;;;;;6.32;2.08;;;;;;;;;;6247060;22;20019;-92
2023/01/22 14:44:55;;;;;;;7.88;1.88;;;;;;;;;;6247696;22;20023;-91
2023/01/22 14:47:29;;;;;;;9.13;2.42;;;;;;;;;;6236695;22;20050;-91
2023/01/22 14:49:57;;;;;;;5.10;2.28;;;;;;;;;;6236145;22;20091;-90
2023/01/22 14:52:25;;;;;;;6.18;1.63;;;;;;;;;;6266473;22;20019;-91
2023/01/22 14:54:54;;;;;;;6.68;1.80;;;;;;;;;;6265120;22;20098;-93
2023/01/22 14:57:23;;;;;;;5.82;1.77;;;;;;;;;;6290971;22;20019;-94
2023/01/22 14:59:51;;;;;;;9.13;2.15;;;;;;;;;;6258427;22;20023;-93
2023/01/22 15:02:19;;;;;;;6.57;1.75;;;;;;;;;;6319551;22;20045;-93
2023/01/22 15:04:51;;;;;;;6.38;1.90;;;;;;;;;;6231780;22;20025;-92
2023/01/22 15:07:19;;;;;;;12.80;2.30;;;;;;;;;;6255080;22;20030;-92
2023/01/22 15:09:51;;;;;;;3.90;1.98;;;;;;;;;;6289454;22;20390;-91
2023/01/22 15:12:19;;;;;;;9.50;2.03;;;;;;;;;;6267850;22;20061;-90
2023/01/22 15:15:12;;;;;;;4.28;1.73;;;;;;;;;;6254746;22;20479;-90
2023/01/22 15:17:41;;;;;;;4.93;1.70;;;;;;;;;;6260623;22;20019;-90
2023/01/22 15:20:09;;;;;;;8.73;2.13;;;;;;;;;;6259397;22;20100;-91
2023/01/22 15:22:43;;;;;;;6.13;1.95;;;;;;;;;;6275467;22;20378;-91
2023/01/22 15:25:17;;;;;;;8.13;1.90;;;;;;;;;;6263648;22;20015;-91
2023/01/22 15:27:49;;;;;;;8.20;2.28;;;;;;;;;;6294533;22;20019;-92
2023/01/22 15:30:18;;;;;;;7.22;1.90;;;;;;;;;;6277539;22;20021;-92
2023/01/22 15:32:51;;;;;;;6.75;1.60;;;;;;;;;;6282174;22;20011;-92
2023/01/22 15:38:11;;;;;;;5.40;1.55;;;;;;;;;;6261333;22;20068;-91
2023/01/22 15:40:39;;;;;;;4.55;1.50;;;;;;;;;;6242613;22;20027;-92
2023/01/22 15:43:07;;;;;;;4.65;1.88;;;;;;;;;;6245210;22;20569;-91
2023/01/22 15:45:35;;;;;;;5.53;2.60;;;;;;;;;;6272422;22;20025;-91
2023/01/22 15:48:27;;;;;;;7.22;2.15;;;;;;;;;;6275336;22;20023;-92
2023/01/22 15:51:20;;;;;;;6.43;2.28;;;;;;;;;;6251375;22;20019;-92
2023/01/22 15:53:52;;;;;;;8.45;2.60;;;;;;;;;;6277922;22;20099;-93
2023/01/22 15:56:21;;;;;;;4.60;2.03;;;;;;;;;;6317656;22;20026;-91
2023/01/22 15:59:24;;;;;;;4.05;2.33;;;;;;;;;;6256091;22;20102;-90
2023/01/22 16:01:53;;;;;;;13.13;4.10;;;;;;;;;;6328207;22;20056;-92
2023/01/22 16:04:45;;;;;;;3.83;2.00;;;;;;;;;;6268288;22;20125;-91
2023/01/22 16:07:13;;;;;;;5.53;2.20;;;;;;;;;;6235873;22;20091;-90
2023/01/22 16:09:41;;;;;;;9.15;2.25;;;;;;;;;;6281744;22;20052;-90
2023/01/22 16:12:09;;;;;;;4.90;1.92;;;;;;;;;;6314429;22;20072;-91
2023/01/22 16:14:37;;;;;;;7.38;2.60;;;;;;;;;;6252692;22;20034;-89
2023/01/22 16:17:29;;;;;;;5.13;2.08;;;;;;;;;;6319724;22;20098;-92
2023/01/22 16:19:57;;;;;;;5.55;2.30;;;;;;;;;;6272537;22;20069;-92
2023/01/22 16:22:25;;;;;;;6.65;2.28;;;;;;;;;;6257492;22;20019;-91